Time;durP1;ratioP1;P1;durP2;ratioP2;P2;SDS_P1;SDS_P2;PMS_P1;PMS_P2;Temp;Humidity;BMP_temperature;BMP_pressure;BME280_temperature;BME280_humidity;BME280_pressure;Samples;Min_cycle;Max_cycle;Signal;HPM_P1;HPM_P2
2021/04/19 00:00:13;;;;;;;18.70;11.60;;;6.00;90.20;;;;;;6042704;23;20030;-79
2021/04/19 00:02:41;;;;;;;16.70;11.07;;;6.00;90.30;;;;;;6027390;23;20042;-79
2021/04/19 00:05:10;;;;;;;17.02;11.77;;;6.00;90.00;;;;;;6042118;23;20077;-79
2021/04/19 00:07:37;;;;;;;16.17;10.60;;;6.00;89.70;;;;;;6042707;23;20027;-79
2021/04/19 00:10:05;;;;;;;25.13;11.75;;;6.00;89.80;;;;;;6052189;23;20022;-79
2021/04/19 00:12:31;;;;;;;21.67;12.63;;;6.00;89.70;;;;;;6042082;23;20038;-79
2021/04/19 00:14:57;;;;;;;18.55;12.75;;;6.00;90.10;;;;;;6048242;23;20022;-80
2021/04/19 00:17:26;;;;;;;20.45;12.20;;;6.00;90.30;;;;;;6043062;23;20011;-79
2021/04/19 00:19:52;;;;;;;22.00;11.90;;;6.00;90.50;;;;;;6051985;23;20248;-79
2021/04/19 00:22:18;;;;;;;17.58;12.02;;;6.10;90.40;;;;;;6041675;23;20382;-79
2021/04/19 00:24:44;;;;;;;20.23;12.40;;;6.10;90.40;;;;;;6042593;23;20019;-80
2021/04/19 00:27:11;;;;;;;26.63;14.68;;;6.10;90.50;;;;;;6052375;23;20018;-82
2021/04/19 00:29:37;;;;;;;20.13;12.73;;;6.20;91.20;;;;;;6042022;23;20023;-79
2021/04/19 00:32:03;;;;;;;19.30;12.25;;;6.50;90.90;;;;;;6042874;23;20011;-79
2021/04/19 00:34:30;;;;;;;24.88;12.50;;;6.20;90.80;;;;;;6052032;23;20008;-79
2021/04/19 00:36:56;;;;;;;26.08;13.90;;;6.30;90.70;;;;;;6052020;23;20023;-79
2021/04/19 00:39:22;;;;;;;21.40;14.13;;;6.30;90.90;;;;;;6051809;23;20011;-79
2021/04/19 00:41:49;;;;;;;30.40;14.20;;;6.30;91.00;;;;;;6040901;23;20022;-78
2021/04/19 00:44:16;;;;;;;21.05;12.38;;;6.40;91.10;;;;;;6051290;23;20019;-78
2021/04/19 00:46:42;;;;;;;21.17;14.10;;;6.40;91.10;;;;;;6041934;23;20275;-79
2021/04/19 00:49:08;;;;;;;20.70;13.43;;;6.40;91.10;;;;;;6042075;23;20019;-79
2021/04/19 00:51:34;;;;;;;19.02;12.50;;;6.30;91.40;;;;;;6042062;23;20293;-79
2021/04/19 00:54:01;;;;;;;23.05;15.20;;;6.20;91.70;;;;;;6051999;23;20007;-79
2021/04/19 00:56:27;;;;;;;17.83;11.80;;;6.20;91.60;;;;;;6051874;23;20026;-79
2021/04/19 00:58:54;;;;;;;16.83;11.73;;;6.10;91.40;;;;;;6051891;23;20018;-79
2021/04/19 01:01:20;;;;;;;22.63;13.35;;;6.10;91.10;;;;;;6043691;23;20018;-80
2021/04/19 01:03:47;;;;;;;19.27;12.18;;;6.10;91.10;;;;;;6042406;23;20023;-79
2021/04/19 01:06:13;;;;;;;19.98;11.55;;;6.10;91.10;;;;;;6051646;23;20019;-80
2021/04/19 01:08:40;;;;;;;17.52;11.13;;;6.10;91.20;;;;;;6027190;23;20271;-80
2021/04/19 01:11:06;;;;;;;21.02;11.48;;;6.00;91.10;;;;;;6051692;23;20018;-79
2021/04/19 01:13:32;;;;;;;16.63;10.52;;;6.00;91.10;;;;;;6041705;23;20031;-79
2021/04/19 01:15:58;;;;;;;15.95;10.68;;;6.00;90.70;;;;;;6041266;23;20019;-79
2021/04/19 01:18:25;;;;;;;19.40;12.77;;;6.00;90.40;;;;;;6041960;23;20283;-79
2021/04/19 01:20:51;;;;;;;22.13;12.98;;;6.00;90.40;;;;;;6041934;23;20255;-79
2021/04/19 01:23:18;;;;;;;22.17;12.40;;;6.00;90.90;;;;;;6041742;23;20031;-79
2021/04/19 01:25:45;;;;;;;18.30;11.98;;;5.90;91.10;;;;;;6041802;23;20026;-79
2021/04/19 01:28:14;;;;;;;18.80;10.77;;;5.90;91.10;;;;;;6026253;23;20061;-79
2021/04/19 01:30:43;;;;;;;17.73;11.43;;;5.90;91.10;;;;;;6041294;23;20019;-79
2021/04/19 01:33:09;;;;;;;21.13;11.73;;;5.90;91.10;;;;;;6016205;23;20023;-80
2021/04/19 01:35:36;;;;;;;19.08;12.32;;;5.90;90.90;;;;;;6051059;23;20015;-80
2021/04/19 01:38:07;;;;;;;16.90;10.85;;;5.90;90.90;;;;;;6041416;23;20023;-80
2021/04/19 01:40:33;;;;;;;19.48;11.95;;;5.90;90.80;;;;;;6051091;23;20023;-79
2021/04/19 01:43:00;;;;;;;19.27;12.95;;;6.00;90.90;;;;;;6041596;23;20030;-79
2021/04/19 01:45:26;;;;;;;22.08;13.23;;;6.00;91.10;;;;;;6041315;23;20394;-79
2021/04/19 01:47:54;;;;;;;20.13;14.77;;;6.30;91.20;;;;;;6041253;23;20023;-78
2021/04/19 01:50:26;;;;;;;26.38;14.82;;;6.20;91.30;;;;;;6041130;23;20034;-79
2021/04/19 01:52:54;;;;;;;23.00;15.65;;;6.30;91.20;;;;;;6042050;23;20026;-79
2021/04/19 01:55:24;;;;;;;22.70;15.95;;;6.40;91.30;;;;;;6042258;23;20275;-79
2021/04/19 01:57:53;;;;;;;19.48;14.57;;;6.50;91.10;;;;;;6041973;23;20023;-80
2021/04/19 02:00:22;;;;;;;27.20;17.92;;;6.60;91.00;;;;;;6048817;23;20270;-80
2021/04/19 02:03:11;;;;;;;23.58;17.15;;;6.60;91.30;;;;;;6040571;23;20027;-79
2021/04/19 02:05:50;;;;;;;29.92;17.38;;;6.70;91.30;;;;;;6051339;23;20008;-79
2021/04/19 02:08:36;;;;;;;28.85;19.15;;;6.80;91.20;;;;;;6041022;23;20019;-80
2021/04/19 02:11:42;;;;;;;33.47;19.83;;;6.80;91.40;;;;;;6041432;23;20023;-78
2021/04/19 02:14:17;;;;;;;38.88;20.30;;;6.90;91.70;;;;;;6040794;23;20059;-79
2021/04/19 02:17:10;;;;;;;26.65;17.25;;;6.90;91.60;;;;;;6043859;23;20287;-80
2021/04/19 02:19:41;;;;;;;30.83;18.50;;;6.90;91.50;;;;;;6051111;23;20591;-78
2021/04/19 02:22:18;;;;;;;30.23;18.98;;;7.00;91.30;;;;;;6050868;23;20008;-79
2021/04/19 02:24:49;;;;;;;25.10;17.15;;;7.10;91.30;;;;;;6040515;23;20031;-79
2021/04/19 02:27:28;;;;;;;26.95;18.70;;;7.10;91.30;;;;;;6041175;23;20015;-80
2021/04/19 02:29:57;;;;;;;25.17;16.33;;;7.20;91.30;;;;;;6041415;23;20026;-81
2021/04/19 02:32:32;;;;;;;29.23;20.27;;;7.20;91.20;;;;;;6040329;23;20046;-80
2021/04/19 02:35:02;;;;;;;31.23;20.35;;;7.50;91.00;;;;;;6016771;23;20030;-79
2021/04/19 02:37:31;;;;;;;25.90;18.00;;;7.30;91.20;;;;;;6041045;23;20027;-79
2021/04/19 02:39:59;;;;;;;29.08;20.25;;;7.30;91.00;;;;;;6051460;23;20011;-80
2021/04/19 02:42:28;;;;;;;31.92;20.75;;;7.40;91.10;;;;;;6040862;23;20283;-79
2021/04/19 02:44:55;;;;;;;26.17;17.20;;;7.40;91.30;;;;;;6041142;23;20027;-79
2021/04/19 02:47:23;;;;;;;30.15;19.65;;;7.40;91.20;;;;;;6040631;23;20019;-80
2021/04/19 02:49:50;;;;;;;33.08;20.60;;;7.30;91.20;;;;;;6050889;23;20015;-80
2021/04/19 02:52:17;;;;;;;28.67;19.92;;;7.30;91.30;;;;;;6041144;23;20026;-80
2021/04/19 02:54:46;;;;;;;28.30;18.40;;;7.30;91.40;;;;;;6040904;23;20023;-81
2021/04/19 02:57:26;;;;;;;31.40;20.27;;;7.30;91.40;;;;;;6050950;23;20011;-80
2021/04/19 02:59:54;;;;;;;27.55;17.90;;;7.30;91.30;;;;;;6041463;23;20019;-80
2021/04/19 03:02:28;;;;;;;27.70;18.45;;;7.30;91.40;;;;;;6041234;23;20023;-80
2021/04/19 03:04:54;;;;;;;25.48;17.50;;;7.30;91.40;;;;;;6040610;23;20023;-79
2021/04/19 03:07:24;;;;;;;39.80;18.98;;;7.20;91.30;;;;;;6040411;23;20023;-79
2021/04/19 03:09:56;;;;;;;27.40;19.52;;;7.20;91.10;;;;;;6050444;23;20032;-80
2021/04/19 03:12:28;;;;;;;31.23;19.83;;;7.20;91.30;;;;;;6040664;23;20406;-79
2021/04/19 03:14:59;;;;;;;26.67;19.52;;;7.30;91.40;;;;;;6040519;23;20031;-81
2021/04/19 03:17:26;;;;;;;30.15;21.23;;;7.20;91.40;;;;;;6040900;23;20019;-79
2021/04/19 03:20:09;;;;;;;23.10;17.08;;;7.20;91.50;;;;;;6041175;23;20023;-79
2021/04/19 03:22:37;;;;;;;28.65;18.02;;;7.20;91.30;;;;;;6051158;23;20413;-79
2021/04/19 03:25:08;;;;;;;29.27;19.27;;;7.20;91.00;;;;;;6041641;23;20019;-80
2021/04/19 03:27:36;;;;;;;25.17;17.02;;;7.10;91.10;;;;;;6041395;23;20049;-79
2021/04/19 03:30:06;;;;;;;29.40;23.00;;;7.10;91.00;;;;;;6041521;23;20371;-80
2021/04/19 03:32:35;;;;;;;21.98;16.10;;;7.00;91.10;;;;;;6043026;23;20026;-79
2021/04/19 03:35:04;;;;;;;37.22;20.58;;;6.90;90.90;;;;;;6040713;23;20386;-79
2021/04/19 03:37:33;;;;;;;32.40;21.10;;;6.90;90.90;;;;;;6050510;23;20403;-79
2021/04/19 03:40:28;;;;;;;25.55;19.30;;;6.90;91.10;;;;;;6041046;23;20019;-79
2021/04/19 03:43:00;;;;;;;25.63;17.45;;;6.80;91.30;;;;;;6041091;23;20019;-80
2021/04/19 03:45:29;;;;;;;31.75;19.60;;;6.80;91.10;;;;;;6040989;23;20019;-79
2021/04/19 03:47:58;;;;;;;27.70;20.50;;;6.70;90.80;;;;;;6041443;23;20046;-78
2021/04/19 03:50:26;;;;;;;29.77;20.00;;;6.70;91.00;;;;;;6041192;23;20022;-78
2021/04/19 03:52:54;;;;;;;31.15;21.75;;;6.70;91.10;;;;;;6040839;23;20066;-79
2021/04/19 03:55:21;;;;;;;32.67;22.58;;;6.70;91.20;;;;;;6040538;23;20027;-79
2021/04/19 03:57:49;;;;;;;28.58;20.48;;;6.60;91.40;;;;;;6042099;23;20023;-78
2021/04/19 04:00:20;;;;;;;25.92;19.27;;;6.60;91.50;;;;;;6040676;23;20019;-79
2021/04/19 04:02:55;;;;;;;28.58;21.77;;;6.60;91.30;;;;;;6040738;23;20038;-80
2021/04/19 04:05:22;;;;;;;30.90;21.50;;;6.70;91.40;;;;;;6041835;23;20015;-80
2021/04/19 04:07:49;;;;;;;33.20;20.25;;;6.70;91.50;;;;;;6042506;23;20019;-78
2021/04/19 04:10:18;;;;;;;26.60;18.75;;;6.70;91.40;;;;;;6042344;23;20015;-79
2021/04/19 04:12:45;;;;;;;27.50;19.77;;;6.70;91.30;;;;;;6043090;23;20035;-78
2021/04/19 04:15:11;;;;;;;35.25;21.15;;;6.80;91.20;;;;;;6041443;23;20034;-79
2021/04/19 04:17:42;;;;;;;30.00;19.52;;;6.80;91.20;;;;;;6042232;23;20027;-79
2021/04/19 04:20:08;;;;;;;29.55;20.67;;;6.80;91.20;;;;;;6042827;23;20034;-78
2021/04/19 04:22:35;;;;;;;33.67;18.25;;;6.90;91.30;;;;;;6041916;23;20283;-77
2021/04/19 04:25:05;;;;;;;29.73;19.08;;;6.90;91.20;;;;;;6041618;23;20023;-78
2021/04/19 04:27:31;;;;;;;28.70;19.17;;;6.90;91.10;;;;;;6040910;23;20015;-79
2021/04/19 04:29:57;;;;;;;28.52;20.65;;;6.90;91.00;;;;;;6044413;23;20023;-79
2021/04/19 04:32:24;;;;;;;29.40;19.23;;;7.00;91.20;;;;;;6043278;23;20031;-79
2021/04/19 04:34:50;;;;;;;24.17;18.23;;;7.00;91.20;;;;;;6051961;23;20016;-79
2021/04/19 04:37:16;;;;;;;30.58;19.48;;;7.00;91.20;;;;;;6042088;23;20019;-79
2021/04/19 04:39:42;;;;;;;25.98;19.00;;;7.10;91.20;;;;;;6042344;23;20021;-77
2021/04/19 04:42:14;;;;;;;27.00;17.88;;;6.90;91.10;;;;;;6017437;23;20034;-80
2021/04/19 04:44:44;;;;;;;27.42;18.85;;;7.00;90.90;;;;;;6042674;23;20030;-79
2021/04/19 04:47:31;;;;;;;25.15;17.88;;;6.90;90.80;;;;;;6042103;23;20026;-81
2021/04/19 04:50:08;;;;;;;23.10;17.33;;;6.90;90.60;;;;;;6042292;23;20026;-79
2021/04/19 04:52:56;;;;;;;39.75;19.83;;;6.90;90.40;;;;;;6029128;23;20011;-81
2021/04/19 04:55:23;;;;;;;29.35;18.45;;;6.90;90.80;;;;;;6043160;23;20031;-81
2021/04/19 04:57:50;;;;;;;26.45;19.15;;;6.80;90.80;;;;;;6042968;23;20023;-83
2021/04/19 05:00:19;;;;;;;29.50;19.40;;;6.80;90.90;;;;;;6042031;23;20423;-81
2021/04/19 05:02:48;;;;;;;31.40;20.70;;;6.80;91.00;;;;;;6046102;23;20019;-80
2021/04/19 05:05:15;;;;;;;34.40;21.02;;;6.70;90.90;;;;;;6041691;23;20350;-80
2021/04/19 05:07:42;;;;;;;30.98;18.42;;;6.70;91.10;;;;;;6027366;23;20019;-81
2021/04/19 05:10:09;;;;;;;27.02;18.30;;;6.80;91.10;;;;;;6042543;23;20027;-82
2021/04/19 05:12:37;;;;;;;26.08;18.58;;;6.70;90.90;;;;;;6042457;23;20042;-82
2021/04/19 05:15:09;;;;;;;31.92;20.45;;;6.70;91.10;;;;;;6042220;23;20038;-82
2021/04/19 05:17:36;;;;;;;29.27;19.05;;;6.70;91.00;;;;;;6042135;23;20019;-82
2021/04/19 05:20:04;;;;;;;24.60;18.98;;;6.60;91.00;;;;;;6027106;23;20011;-82
2021/04/19 05:22:31;;;;;;;24.85;18.52;;;6.70;91.10;;;;;;6043161;23;20030;-79
2021/04/19 05:24:57;;;;;;;26.25;17.63;;;6.70;91.10;;;;;;6052884;23;20011;-82
2021/04/19 05:27:23;;;;;;;28.92;19.35;;;6.70;91.00;;;;;;6041545;23;20019;-83
2021/04/19 05:29:50;;;;;;;25.42;17.23;;;6.50;90.80;;;;;;6040881;23;20023;-81
2021/04/19 05:32:18;;;;;;;27.60;19.75;;;6.70;91.00;;;;;;6040959;23;20022;-82
2021/04/19 05:34:45;;;;;;;30.33;21.38;;;6.80;90.90;;;;;;6040797;23;20023;-82
2021/04/19 05:37:11;;;;;;;29.73;20.08;;;6.90;91.10;;;;;;6054427;23;20022;-83
2021/04/19 05:39:37;;;;;;;30.55;19.02;;;6.90;91.20;;;;;;6048907;23;20019;-83
2021/04/19 05:42:05;;;;;;;30.70;18.92;;;7.00;91.20;;;;;;6041430;23;20016;-83
2021/04/19 05:44:32;;;;;;;27.55;18.23;;;7.10;91.20;;;;;;6017136;23;20016;-84
2021/04/19 05:46:58;;;;;;;30.15;17.52;;;7.30;91.20;;;;;;6042627;23;20027;-82
2021/04/19 05:49:24;;;;;;;40.47;20.35;;;7.50;91.00;;;;;;6051121;23;20007;-81
2021/04/19 05:51:55;;;;;;;30.02;18.20;;;7.60;90.70;;;;;;6040478;23;20068;-82
2021/04/19 05:54:21;;;;;;;32.17;19.00;;;8.00;90.70;;;;;;6016049;23;20030;-83
2021/04/19 05:56:53;;;;;;;26.13;17.58;;;8.00;90.70;;;;;;6016124;23;20023;-84
2021/04/19 05:59:30;;;;;;;23.73;15.95;;;8.20;90.60;;;;;;6050868;23;20387;-81
2021/04/19 06:01:58;;;;;;;25.67;17.45;;;8.30;90.20;;;;;;6040944;23;20019;-82
2021/04/19 06:05:04;;;;;;;23.63;16.10;;;8.40;90.00;;;;;;6040455;23;20019;-83
2021/04/19 06:07:43;;;;;;;22.45;15.30;;;8.50;90.00;;;;;;6041112;23;20031;-82
2021/04/19 06:10:24;;;;;;;25.17;17.88;;;8.60;89.30;;;;;;6040260;23;20023;-82
2021/04/19 06:12:54;;;;;;;27.27;16.55;;;8.60;89.70;;;;;;6039950;23;20413;-81
2021/04/19 06:15:23;;;;;;;28.92;16.33;;;8.80;89.40;;;;;;6051120;23;20398;-79
2021/04/19 06:17:55;;;;;;;22.63;14.80;;;8.70;89.20;;;;;;6045712;23;20382;-83
2021/04/19 06:20:22;;;;;;;21.40;14.07;;;8.80;88.80;;;;;;6040384;23;20023;-83
2021/04/19 06:22:50;;;;;;;22.02;14.95;;;8.80;88.70;;;;;;6050279;23;20015;-82
2021/04/19 06:25:18;;;;;;;21.95;14.85;;;8.80;88.90;;;;;;6049145;23;20029;-82
2021/04/19 06:27:45;;;;;;;19.98;14.88;;;8.90;88.60;;;;;;6041248;23;20034;-82
2021/04/19 06:30:16;;;;;;;23.55;15.98;;;8.90;88.40;;;;;;6051017;23;20287;-83
2021/04/19 06:32:44;;;;;;;23.15;14.70;;;9.00;88.50;;;;;;6040115;23;20030;-82
2021/04/19 06:35:12;;;;;;;22.15;14.63;;;9.10;88.30;;;;;;6041230;23;20028;-80
2021/04/19 06:37:39;;;;;;;20.38;14.68;;;9.30;88.60;;;;;;6047774;23;20011;-80
2021/04/19 06:40:06;;;;;;;22.92;15.02;;;9.40;87.80;;;;;;6041044;23;20023;-81
2021/04/19 06:42:34;;;;;;;20.73;13.23;;;9.60;87.60;;;;;;6040668;23;20022;-81
2021/04/19 06:45:06;;;;;;;21.10;14.32;;;9.80;87.20;;;;;;6040527;23;20382;-80
2021/04/19 06:47:35;;;;;;;22.50;13.65;;;9.90;87.10;;;;;;6048647;23;20011;-80
2021/04/19 06:50:05;;;;;;;22.23;13.05;;;10.10;86.60;;;;;;6040596;23;20030;-81
2021/04/19 06:52:32;;;;;;;18.38;12.68;;;10.20;85.80;;;;;;6041037;23;20019;-81
2021/04/19 06:54:59;;;;;;;21.17;13.10;;;10.40;85.00;;;;;;6051657;23;20016;-81
2021/04/19 06:57:30;;;;;;;22.80;12.75;;;10.60;84.50;;;;;;6041115;23;20015;-82
2021/04/19 06:59:57;;;;;;;20.42;13.57;;;10.80;83.90;;;;;;6041492;23;20019;-81
2021/04/19 07:02:27;;;;;;;19.67;13.20;;;11.00;83.30;;;;;;6040745;23;20022;-79
2021/04/19 07:04:54;;;;;;;22.17;14.40;;;11.20;82.90;;;;;;6016935;23;20042;-80
2021/04/19 07:07:28;;;;;;;20.63;12.43;;;11.30;82.50;;;;;;6040651;23;20015;-80
2021/04/19 07:09:57;;;;;;;20.55;13.52;;;11.40;82.30;;;;;;6041562;23;20411;-79
2021/04/19 07:12:25;;;;;;;20.17;13.23;;;11.40;82.20;;;;;;6041226;23;20022;-81
2021/04/19 07:14:54;;;;;;;20.02;11.27;;;11.40;82.10;;;;;;6021189;23;20019;-81
2021/04/19 07:17:22;;;;;;;21.67;13.05;;;11.50;82.50;;;;;;6040870;23;20030;-82
2021/04/19 07:19:50;;;;;;;23.63;12.93;;;11.30;82.40;;;;;;6041613;23;20015;-81
2021/04/19 07:22:17;;;;;;;18.75;13.30;;;11.40;82.30;;;;;;6040979;23;20468;-81
2021/04/19 07:24:44;;;;;;;19.88;12.07;;;11.60;81.80;;;;;;6040756;23;20019;-81
2021/04/19 07:27:12;;;;;;;22.02;13.65;;;11.80;81.40;;;;;;6040461;23;20023;-82
2021/04/19 07:29:42;;;;;;;19.02;13.60;;;12.20;81.50;;;;;;6041647;23;20367;-81
2021/04/19 07:32:10;;;;;;;27.65;14.07;;;12.10;80.80;;;;;;6041922;23;20023;-80
2021/04/19 07:34:37;;;;;;;20.75;13.30;;;12.20;80.50;;;;;;6041433;23;20020;-81
2021/04/19 07:37:05;;;;;;;22.50;14.02;;;12.20;79.80;;;;;;6041453;23;20023;-79
2021/04/19 07:39:38;;;;;;;22.05;13.05;;;12.40;79.50;;;;;;6041612;23;20027;-80
2021/04/19 07:42:06;;;;;;;22.98;12.88;;;12.40;79.50;;;;;;6042474;23;20042;-82
2021/04/19 07:44:32;;;;;;;20.80;12.27;;;12.60;78.90;;;;;;6042618;23;20022;-79
2021/04/19 07:47:36;;;;;;;18.15;12.43;;;12.90;78.90;;;;;;6052284;23;20018;-80
2021/04/19 07:50:08;;;;;;;24.40;13.02;;;13.10;77.90;;;;;;5955685;24;20300;-80
2021/04/19 07:52:51;;;;;;;18.27;12.10;;;13.20;78.00;;;;;;5962440;24;20017;-82
2021/04/19 07:55:21;;;;;;;21.20;11.85;;;13.30;77.60;;;;;;5965006;24;20026;-80
2021/04/19 07:57:49;;;;;;;20.92;13.27;;;13.30;77.50;;;;;;5957083;24;20362;-80
2021/04/19 08:00:31;;;;;;;20.15;12.25;;;13.60;76.80;;;;;;5956474;24;20020;-81
2021/04/19 08:03:08;;;;;;;22.23;11.88;;;13.80;76.40;;;;;;5954688;24;20021;-81
2021/04/19 08:05:42;;;;;;;16.20;11.85;;;14.00;76.50;;;;;;5955413;24;20024;-80
2021/04/19 08:08:10;;;;;;;17.77;12.18;;;14.00;74.30;;;;;;5955074;24;20025;-80
2021/04/19 08:10:39;;;;;;;14.13;10.27;;;14.00;74.60;;;;;;5964827;24;20024;-81
2021/04/19 08:13:09;;;;;;;17.75;10.40;;;14.60;74.80;;;;;;5955190;24;20028;-80
2021/04/19 08:15:37;;;;;;;22.85;11.52;;;14.60;73.50;;;;;;5955254;24;20035;-82
2021/04/19 08:18:15;;;;;;;15.90;10.32;;;14.50;72.50;;;;;;5932191;24;20059;-80
2021/04/19 08:20:58;;;;;;;18.52;11.55;;;14.50;73.10;;;;;;5964639;24;20013;-81
2021/04/19 08:23:27;;;;;;;18.38;12.30;;;14.60;72.70;;;;;;5954785;24;20388;-80
2021/04/19 08:25:53;;;;;;;18.25;11.82;;;15.00;72.70;;;;;;6007738;23;20032;-81
2021/04/19 08:28:22;;;;;;;19.75;12.18;;;15.00;72.10;;;;;;6052034;23;20015;-81
2021/04/19 08:30:51;;;;;;;19.27;10.95;;;14.80;71.50;;;;;;6051745;23;20022;-81
2021/04/19 08:33:18;;;;;;;17.45;12.23;;;14.90;71.40;;;;;;6049629;23;20024;-81
2021/04/19 08:35:47;;;;;;;17.13;11.85;;;15.00;72.10;;;;;;6041335;23;20022;-81
2021/04/19 08:38:18;;;;;;;17.50;11.32;;;15.10;72.00;;;;;;6041489;23;20496;-80
2021/04/19 08:40:45;;;;;;;19.75;12.80;;;15.30;71.60;;;;;;6041824;23;20027;-80
2021/04/19 08:43:18;;;;;;;14.57;11.63;;;15.40;70.60;;;;;;6051526;23;20016;-80
2021/04/19 08:45:45;;;;;;;18.00;12.07;;;15.70;70.10;;;;;;6041364;23;20043;-80
2021/04/19 08:48:12;;;;;;;21.02;13.00;;;15.80;69.80;;;;;;6041055;23;20026;-79
2021/04/19 08:50:40;;;;;;;16.83;11.05;;;15.90;69.70;;;;;;6041128;23;20027;-81
2021/04/19 08:53:12;;;;;;;20.55;12.75;;;16.00;70.00;;;;;;6044911;23;20024;-79
2021/04/19 08:55:41;;;;;;;17.90;13.20;;;16.40;69.00;;;;;;6017319;23;20406;-79
2021/04/19 08:58:13;;;;;;;23.08;13.15;;;16.50;68.10;;;;;;6042235;23;20026;-81
2021/04/19 09:00:49;;;;;;;19.92;12.98;;;16.40;66.90;;;;;;6042016;23;20026;-80
2021/04/19 09:03:18;;;;;;;19.08;13.07;;;16.40;66.80;;;;;;6041128;23;20019;-80
2021/04/19 09:05:45;;;;;;;18.45;12.32;;;16.50;67.00;;;;;;6041643;23;20023;-79
2021/04/19 09:08:18;;;;;;;16.67;12.82;;;16.40;67.30;;;;;;6042118;23;20367;-80
2021/04/19 09:10:53;;;;;;;15.63;12.57;;;16.30;66.10;;;;;;6041507;23;20019;-80
2021/04/19 09:13:30;;;;;;;20.23;13.25;;;16.00;67.60;;;;;;6051360;23;20020;-81
2021/04/19 09:16:22;;;;;;;18.73;12.85;;;15.90;67.10;;;;;;6041020;23;20035;-81
2021/04/19 09:18:56;;;;;;;16.35;12.30;;;16.10;67.00;;;;;;6041480;23;20031;-80
2021/04/19 09:21:40;;;;;;;18.25;11.15;;;15.90;66.50;;;;;;6041575;23;20018;-80
2021/04/19 09:24:12;;;;;;;19.00;11.88;;;16.30;66.80;;;;;;6042068;23;20026;-81
2021/04/19 09:27:01;;;;;;;18.42;12.50;;;16.30;67.00;;;;;;6042195;23;20019;-81
2021/04/19 09:29:27;;;;;;;23.13;11.90;;;16.80;66.10;;;;;;6051996;23;20070;-81
2021/04/19 09:32:06;;;;;;;13.55;10.80;;;17.00;65.60;;;;;;6044011;23;20405;-79
2021/04/19 09:34:54;;;;;;;17.42;11.32;;;17.20;63.50;;;;;;6017487;23;20027;-80
2021/04/19 09:37:35;;;;;;;15.10;10.90;;;17.00;65.30;;;;;;6017062;23;20019;-80
2021/04/19 09:40:06;;;;;;;23.80;12.10;;;16.70;62.90;;;;;;6040201;23;20260;-82
2021/04/19 09:42:54;;;;;;;19.38;11.48;;;16.80;65.40;;;;;;6051370;23;20026;-79
2021/04/19 09:45:45;;;;;;;19.40;12.88;;;16.90;64.80;;;;;;6051470;23;20015;-79
2021/04/19 09:48:30;;;;;;;22.40;14.43;;;17.10;64.90;;;;;;6041772;23;20023;-80
2021/04/19 09:51:00;;;;;;;24.13;16.98;;;17.10;63.30;;;;;;6041533;23;20031;-80
2021/04/19 09:53:27;;;;;;;21.02;14.02;;;17.40;64.10;;;;;;6040846;23;20027;-80
2021/04/19 09:55:54;;;;;;;23.73;15.75;;;17.50;64.30;;;;;;6041632;23;20030;-80
2021/04/19 09:58:20;;;;;;;18.27;14.02;;;17.70;63.60;;;;;;6040942;23;20019;-79
2021/04/19 10:00:55;;;;;;;20.50;14.35;;;17.30;63.40;;;;;;6041900;23;20050;-80
2021/04/19 10:03:21;;;;;;;20.85;13.30;;;17.40;63.40;;;;;;6040635;23;20019;-79
2021/04/19 10:05:53;;;;;;;16.92;13.65;;;17.50;63.20;;;;;;6041281;23;20236;-79
2021/04/19 10:08:24;;;;;;;15.10;12.55;;;17.80;61.60;;;;;;6041276;23;20256;-79
2021/04/19 10:10:54;;;;;;;18.35;13.30;;;18.10;62.60;;;;;;6041379;23;20039;-79
2021/04/19 10:13:37;;;;;;;19.33;13.63;;;18.10;61.30;;;;;;6041450;23;20275;-79
2021/04/19 10:16:05;;;;;;;19.38;14.75;;;18.30;61.50;;;;;;6041493;23;20023;-79
2021/04/19 10:18:33;;;;;;;19.58;13.10;;;18.30;60.60;;;;;;6041672;23;20030;-80
2021/04/19 10:21:01;;;;;;;21.52;14.43;;;18.60;59.20;;;;;;6041794;23;20027;-80
2021/04/19 10:23:35;;;;;;;20.52;14.30;;;18.90;60.10;;;;;;6041479;23;20023;-79
2021/04/19 10:26:02;;;;;;;19.58;14.77;;;18.80;58.10;;;;;;6051535;23;20015;-79
2021/04/19 10:28:35;;;;;;;17.85;13.75;;;18.30;60.20;;;;;;6051016;23;20330;-79
2021/04/19 10:31:19;;;;;;;19.95;15.05;;;18.10;59.00;;;;;;6051347;23;20015;-80
2021/04/19 10:33:48;;;;;;;19.33;12.93;;;18.50;59.20;;;;;;6050914;23;20015;-79
2021/04/19 10:36:26;;;;;;;22.70;16.27;;;18.60;60.80;;;;;;6041718;23;20027;-80
2021/04/19 10:38:55;;;;;;;18.58;14.32;;;18.70;56.60;;;;;;6043299;23;20031;-79
2021/04/19 10:41:34;;;;;;;18.55;14.02;;;19.10;58.20;;;;;;6041717;23;20031;-80
2021/04/19 10:44:03;;;;;;;25.90;14.98;;;19.70;57.70;;;;;;6041954;23;20031;-80
2021/04/19 10:46:32;;;;;;;19.60;14.60;;;19.80;57.20;;;;;;6016556;23;20371;-79
2021/04/19 10:49:00;;;;;;;22.98;16.50;;;20.10;56.80;;;;;;6041326;23;20324;-80
2021/04/19 10:51:32;;;;;;;20.27;14.90;;;20.40;56.00;;;;;;6040533;23;20015;-80
2021/04/19 10:54:03;;;;;;;19.00;15.20;;;21.00;56.80;;;;;;6050859;23;20011;-80
2021/04/19 10:56:30;;;;;;;18.75;15.18;;;21.10;54.90;;;;;;6041463;23;20027;-79
2021/04/19 10:59:02;;;;;;;23.92;15.55;;;20.90;54.90;;;;;;6041239;23;20030;-80
2021/04/19 11:01:34;;;;;;;20.60;15.30;;;20.60;54.20;;;;;;6050747;23;20282;-79
2021/04/19 11:04:03;;;;;;;18.93;14.10;;;20.90;53.60;;;;;;6040661;23;20023;-80
2021/04/19 11:06:29;;;;;;;17.10;13.32;;;21.20;53.10;;;;;;6050629;23;20034;-80
2021/04/19 11:09:15;;;;;;;15.68;13.43;;;21.00;52.70;;;;;;6038884;23;20023;-78
2021/04/19 11:11:42;;;;;;;21.42;14.77;;;20.70;52.30;;;;;;6051054;23;20031;-82
2021/04/19 11:14:19;;;;;;;16.92;13.05;;;21.10;52.00;;;;;;6051785;23;20019;-82
2021/04/19 11:16:57;;;;;;;21.00;14.10;;;20.50;53.90;;;;;;6052435;23;20018;-84
2021/04/19 11:19:37;;;;;;;20.20;14.32;;;20.40;53.00;;;;;;6043010;23;20270;-83
2021/04/19 11:22:22;;;;;;;19.85;13.68;;;20.80;53.20;;;;;;6043053;23;20259;-83
2021/04/19 11:24:50;;;;;;;16.25;12.82;;;21.60;51.60;;;;;;6017534;23;20027;-80
2021/04/19 11:31:11;;;;;;;18.50;13.05;;;22.00;50.90;;;;;;5937459;24;20017;-81
2021/04/19 11:37:32;;;;;;;18.30;14.40;;;21.40;49.00;;;;;;5889264;24;20030;-80
2021/04/19 11:40:48;;;;;;;16.67;11.25;;;21.20;47.00;;;;;;5877014;24;20018;-81
2021/04/19 11:44:38;;;;;;;18.55;13.98;;;21.90;47.60;;;;;;5759064;24;20032;-80
2021/04/19 11:48:24;;;;;;;19.63;14.68;;;22.40;47.10;;;;;;5698511;25;20037;-81
2021/04/19 11:52:35;;;;;;;16.75;12.88;;;22.60;46.40;;;;;;5173781;27;20392;-82
2021/04/19 11:59:11;;;;;;;15.10;11.38;;;23.10;44.60;;;;;;5047894;28;20053;-81
2021/04/19 12:01:41;;;;;;;19.02;14.30;;;23.40;45.30;;;;;;5049171;28;20064;-83
2021/04/19 12:04:12;;;;;;;15.85;12.68;;;23.50;43.30;;;;;;5049611;28;20374;-81
2021/04/19 12:06:41;;;;;;;16.13;13.60;;;23.90;41.70;;;;;;5032716;28;20085;-81
2021/04/19 12:09:07;;;;;;;14.93;11.95;;;23.80;43.10;;;;;;5049389;28;20049;-81
2021/04/19 12:11:43;;;;;;;16.33;12.77;;;24.20;42.30;;;;;;5048733;28;20049;-81
2021/04/19 12:14:19;;;;;;;13.60;10.25;;;24.00;41.80;;;;;;5031816;28;20057;-81
2021/04/19 12:16:54;;;;;;;16.98;13.18;;;23.90;43.30;;;;;;5017150;28;20188;-82
2021/04/19 12:19:25;;;;;;;15.80;11.38;;;23.70;42.00;;;;;;5051098;28;20176;-81
2021/04/19 12:22:09;;;;;;;18.88;10.35;;;24.40;41.50;;;;;;5032064;28;20148;-83
2021/04/19 12:24:35;;;;;;;14.52;11.52;;;24.30;41.30;;;;;;5048825;28;20057;-88
2021/04/19 12:27:06;;;;;;;15.13;11.00;;;24.80;40.80;;;;;;5048910;28;20053;-83
2021/04/19 12:29:41;;;;;;;15.68;11.73;;;25.00;40.20;;;;;;5048757;28;20045;-82
2021/04/19 12:32:07;;;;;;;14.70;12.57;;;24.40;39.80;;;;;;5112663;27;20055;-85
2021/04/19 12:34:33;;;;;;;17.48;10.43;;;24.00;39.20;;;;;;5133984;27;20065;-82
2021/04/19 12:37:00;;;;;;;16.73;12.20;;;24.50;40.10;;;;;;5153690;27;20038;-82
2021/04/19 12:39:29;;;;;;;20.73;11.52;;;24.30;40.00;;;;;;5152862;27;20051;-82
2021/04/19 12:41:55;;;;;;;16.25;11.65;;;24.40;38.80;;;;;;5152454;27;20051;-82
2021/04/19 12:44:24;;;;;;;13.75;11.75;;;24.60;40.30;;;;;;5152518;27;20062;-81
2021/04/19 12:46:53;;;;;;;14.50;11.20;;;24.40;39.00;;;;;;5151737;27;20043;-81
2021/04/19 12:49:21;;;;;;;14.07;11.65;;;23.70;39.40;;;;;;5152081;27;20346;-79
2021/04/19 12:51:55;;;;;;;;;;;23.60;39.60;;;;;;5151691;27;20043;-80
2021/04/19 12:54:32;;;;;;;15.38;11.57;;;23.80;38.50;;;;;;5134963;27;19938;-80
2021/04/19 12:57:27;;;;;;;14.25;10.90;;;24.00;38.60;;;;;;5151603;27;20047;-81
2021/04/19 13:00:14;;;;;;;12.60;11.15;;;24.50;38.90;;;;;;5068710;28;20059;-81
2021/04/19 13:03:01;;;;;;;13.80;11.25;;;24.50;37.80;;;;;;5052812;28;20053;-79
2021/04/19 13:05:53;;;;;;;13.35;10.98;;;24.10;38.30;;;;;;5036578;28;20068;-80
2021/04/19 13:08:34;;;;;;;12.80;10.35;;;24.30;37.40;;;;;;5054288;28;20116;-81